Friday, July 20, 2018, 4:52 AM EDT
Back to Local

KART, Watertown International Airport

Location: Dexter, NY, United States Lat: 43.983
Local Time: 4:52 AM EDT ( 8:52 GMT) Lon: -76.033
Time Zone: US/Eastern Elev: 324 ft

Show me the last for .
Show Decoded

2018-07-20 03:56 METAR KART 200756Z AUTO 08003KT 10SM CLR 11/10 A3008 RMK AO2 SLP181 T01110100 =
2018-07-20 02:56 METAR KART 200656Z AUTO 07003KT 10SM CLR 12/11 A3008 RMK AO2 SLP181 T01170106 =
2018-07-20 01:56 METAR KART 200556Z AUTO 07005KT 10SM CLR 13/11 A3007 RMK AO2 SLP179 T01330111
                 10239 20128 58001 =
2018-07-20 00:56 METAR KART 200456Z AUTO 09004KT 10SM CLR 13/12 A3008 RMK AO2 SLP181 T01280117
                 402610117 =
2018-07-19 23:56 METAR KART 200356Z AUTO 08005KT 10SM CLR 14/12 A3008 RMK AO2 SLP181 T01440117 =
2018-07-19 22:56 METAR KART 200256Z AUTO 09004KT 10SM CLR 14/12 A3007 RMK AO2 SLP180 T01390122
                 50002 =
2018-07-19 21:56 METAR KART 200156Z AUTO 00000KT 10SM CLR 15/13 A3008 RMK AO2 SLP183 T01500128 =
2018-07-19 20:56 METAR KART 200056Z AUTO 12003KT 10SM CLR 17/14 A3008 RMK AO2 SLP181 T01720139 =
2018-07-19 19:56 METAR KART 192356Z AUTO 31003KT 10SM CLR 24/12 A3007 RMK AO2 SLP178 T02390117
                 10261 20239 55002 =
2018-07-19 18:56 METAR KART 192256Z AUTO 25005KT 10SM CLR 24/09 A3007 RMK AO2 SLP178 T02440094 =
2018-07-19 17:56 METAR KART 192156Z AUTO 25005KT 10SM CLR 26/10 A3007 RMK AO2 SLP178 T02560100 =
2018-07-19 16:56 METAR KART 192056Z AUTO 26008KT 10SM CLR 26/09 A3008 RMK AO2 SLP181 T02610094
                 56009 =
2018-07-19 15:56 METAR KART 191956Z AUTO 27008KT 10SM CLR 26/09 A3008 RMK AO2 SLP184 T02560094 =
2018-07-19 14:56 METAR KART 191856Z AUTO 26009KT 10SM CLR 26/10 A3009 RMK AO2 SLP186 T02560100 =
2018-07-19 13:56 METAR KART 191756Z AUTO 26009KT 10SM CLR 24/12 A3010 RMK AO2 SLP191 T02440122
                 10250 20172 55004 =
2018-07-19 12:56 METAR KART 191656Z AUTO 27012KT 10SM CLR 24/12 A3010 RMK AO2 SLP190 T02440122 =
2018-07-19 11:56 METAR KART 191556Z AUTO 27011KT 10SM CLR 24/14 A3011 RMK AO2 SLP194 T02390139 =
2018-07-19 10:56 METAR KART 191456Z AUTO 23007KT 10SM CLR 23/14 A3012 RMK AO2 SLP194 T02330144
                 50005 =
2018-07-19 09:56 METAR KART 191356Z AUTO 23007KT 10SM CLR 22/13 A3012 RMK AO2 SLP195 T02220128 =
2018-07-19 08:56 METAR KART 191256Z AUTO 20008KT 10SM CLR 21/12 A3011 RMK AO2 SLP194 T02060117 =
2018-07-19 07:56 METAR KART 191156Z AUTO 20008KT 10SM CLR 17/12 A3010 RMK AO2 SLP190 T01720122
                 10172 20117 53012 =
2018-07-19 06:56 METAR KART 191056Z AUTO 20005KT 10SM CLR 16/12 A3009 RMK AO2 SLP185 T01560122 =
2018-07-19 05:56 METAR KART 190956Z AUTO 18003KT 10SM CLR 13/12 A3008 RMK AO2 SLP183 T01330117 =
2018-07-19 04:56 METAR KART 190856Z AUTO 00000KT 10SM CLR 13/11 A3007 RMK AO2 SLP178 T01280111
                 53004 =

Support USWX by starting your Amazon purchase here.